createdAt,value
2023-05-15T00:02:23.289Z,12.55
2023-05-15T00:04:50.673Z,12.90
2023-05-15T00:07:17.722Z,12.72
2023-05-15T00:09:44.754Z,12.79
2023-05-15T00:12:11.689Z,12.52
2023-05-15T00:14:38.562Z,12.29
2023-05-15T00:17:06.497Z,12.54
2023-05-15T00:19:33.536Z,12.47
2023-05-15T00:22:00.506Z,12.23
2023-05-15T00:24:27.459Z,12.19
2023-05-15T00:26:54.389Z,12.44
2023-05-15T00:29:21.393Z,12.22
2023-05-15T00:31:48.359Z,12.22
2023-05-15T00:34:15.466Z,12.23
2023-05-15T00:36:42.408Z,12.19
2023-05-15T00:39:09.710Z,11.73
2023-05-15T00:41:37.691Z,12.36
2023-05-15T00:44:06.854Z,12.16
2023-05-15T00:46:36.124Z,12.19
2023-05-15T00:49:05.770Z,12.26
2023-05-15T00:51:33.016Z,12.21
2023-05-15T00:54:00.216Z,12.28
2023-05-15T00:56:30.749Z,12.23
2023-05-15T00:59:00.163Z,12.17
2023-05-15T01:01:27.221Z,12.11
2023-05-15T01:03:54.311Z,11.36
2023-05-15T01:06:21.323Z,12.05
2023-05-15T01:08:49.879Z,12.33
2023-05-15T01:11:18.074Z,12.22
2023-05-15T01:13:46.130Z,12.18
2023-05-15T01:16:13.676Z,12.21
2023-05-15T01:18:40.834Z,12.37
2023-05-15T01:21:10.883Z,12.65
2023-05-15T01:23:56.635Z,12.69
2023-05-15T01:26:48.669Z,12.78
2023-05-15T01:29:27.579Z,12.48
2023-05-15T01:31:58.870Z,12.54
2023-05-15T01:34:34.591Z,12.08
2023-05-15T01:37:04.374Z,11.84
2023-05-15T01:39:34.122Z,12.69
2023-05-15T01:42:11.036Z,12.67
2023-05-15T01:44:41.584Z,12.55
2023-05-15T01:47:15.130Z,12.29
2023-05-15T01:49:45.348Z,11.94
2023-05-15T01:52:23.344Z,12.46
2023-05-15T01:54:50.514Z,12.77
2023-05-15T01:57:19.158Z,12.41
2023-05-15T01:59:46.610Z,12.18
2023-05-15T02:02:14.283Z,12.65
2023-05-15T02:04:42.716Z,12.43
2023-05-15T02:07:10.136Z,12.81
2023-05-15T02:09:37.527Z,12.75
2023-05-15T02:12:06.240Z,12.89
2023-05-15T02:14:33.621Z,12.60
2023-05-15T02:17:00.805Z,12.96
2023-05-15T02:19:27.996Z,12.96
2023-05-15T02:21:54.934Z,12.78
2023-05-15T02:24:21.916Z,13.06
2023-05-15T02:27:12.535Z,13.08
2023-05-15T02:30:07.496Z,13.24
2023-05-15T02:32:56.384Z,13.19
2023-05-15T02:35:27.483Z,13.33
2023-05-15T02:37:58.966Z,13.34
2023-05-15T02:40:27.815Z,13.34
2023-05-15T02:42:57.070Z,13.49
2023-05-15T02:45:24.934Z,13.26
2023-05-15T02:47:52.958Z,12.80
2023-05-15T02:50:20.873Z,13.39
2023-05-15T02:52:47.889Z,13.08
2023-05-15T02:55:14.971Z,13.63
2023-05-15T02:57:42.075Z,13.19
2023-05-15T03:00:13.649Z,13.49
2023-05-15T03:02:40.706Z,12.98
2023-05-15T03:05:08.752Z,13.47
2023-05-15T03:07:35.775Z,12.83
2023-05-15T03:10:02.778Z,13.45
2023-05-15T03:12:29.826Z,13.33
2023-05-15T03:14:56.981Z,13.42
2023-05-15T03:17:24.039Z,13.21
2023-05-15T03:19:51.170Z,13.45
2023-05-15T03:22:18.212Z,13.56
2023-05-15T03:24:45.674Z,13.68
2023-05-15T03:27:12.742Z,13.39
2023-05-15T03:29:39.748Z,13.18
2023-05-15T03:32:06.817Z,13.64
2023-05-15T03:34:33.948Z,13.11
2023-05-15T03:37:01.304Z,13.26
2023-05-15T03:39:28.335Z,13.76
2023-05-15T03:41:55.314Z,13.69
2023-05-15T03:44:22.645Z,13.46
2023-05-15T03:46:49.771Z,13.66
2023-05-15T03:49:18.025Z,13.67
2023-05-15T03:51:45.168Z,13.70
2023-05-15T03:54:14.058Z,13.55
2023-05-15T03:56:41.033Z,12.87
2023-05-15T03:59:08.833Z,13.65
2023-05-15T04:01:44.071Z,13.66
2023-05-15T04:04:18.190Z,13.60
2023-05-15T04:06:45.213Z,13.69
2023-05-15T04:09:12.203Z,13.76
2023-05-15T04:11:39.188Z,13.63
2023-05-15T04:14:06.120Z,13.54
2023-05-15T04:16:33.360Z,13.75
2023-05-15T04:19:00.376Z,13.80
2023-05-15T04:21:27.497Z,13.73
2023-05-15T04:23:54.471Z,13.66
2023-05-15T04:26:21.418Z,13.82
2023-05-15T04:29:00.057Z,13.87
2023-05-15T04:31:31.844Z,13.88
2023-05-15T04:33:59.277Z,13.76
2023-05-15T04:36:26.275Z,13.82
2023-05-15T04:38:53.436Z,13.98
2023-05-15T04:41:21.025Z,14.07
2023-05-15T04:43:47.988Z,13.52
2023-05-15T04:46:14.980Z,13.79
2023-05-15T04:48:42.138Z,13.97
2023-05-15T04:51:09.091Z,13.67
2023-05-15T04:53:36.204Z,13.39
2023-05-15T04:56:03.247Z,14.17
2023-05-15T04:58:30.132Z,13.99
2023-05-15T05:00:57.275Z,14.22
2023-05-15T05:03:24.443Z,14.06
2023-05-15T05:05:51.409Z,13.81
2023-05-15T05:08:18.468Z,13.55
2023-05-15T05:10:45.565Z,14.37
2023-05-15T05:13:12.576Z,13.81
2023-05-15T05:15:39.495Z,14.41
2023-05-15T05:18:06.610Z,14.22
2023-05-15T05:20:33.796Z,14.41
2023-05-15T05:23:00.803Z,14.58
2023-05-15T05:25:27.795Z,14.05
2023-05-15T05:27:54.897Z,14.38
2023-05-15T05:30:22.601Z,14.48
2023-05-15T05:32:49.665Z,14.20
2023-05-15T05:35:16.778Z,14.26
2023-05-15T05:37:43.837Z,14.19
2023-05-15T05:40:11.297Z,14.73
2023-05-15T05:42:38.451Z,14.74
2023-05-15T05:45:06.958Z,14.65
2023-05-15T05:47:34.885Z,14.46
2023-05-15T05:50:01.929Z,14.69
2023-05-15T05:52:29.577Z,13.77
2023-05-15T05:54:56.610Z,14.81
2023-05-15T05:57:23.513Z,14.78
2023-05-15T05:59:50.693Z,14.91
2023-05-15T06:02:17.982Z,14.39
2023-05-15T06:04:46.106Z,14.91
2023-05-15T06:07:13.215Z,14.93
2023-05-15T06:09:40.343Z,14.68
2023-05-15T06:12:09.233Z,15.05
2023-05-15T06:14:36.287Z,15.08
2023-05-15T06:17:03.719Z,15.15
2023-05-15T06:19:30.723Z,15.18
2023-05-15T06:21:58.021Z,14.91
2023-05-15T06:24:25.029Z,15.33
2023-05-15T06:26:52.531Z,15.06
2023-05-15T06:29:19.539Z,15.35
2023-05-15T06:31:47.011Z,15.39
2023-05-15T06:34:14.397Z,15.39
2023-05-15T06:36:41.616Z,13.76
2023-05-15T06:39:10.849Z,15.15
2023-05-15T06:41:38.746Z,15.46
2023-05-15T06:44:11.786Z,15.14
2023-05-15T06:46:38.956Z,15.59
2023-05-15T06:49:06.235Z,15.64
2023-05-15T06:51:33.225Z,15.04
2023-05-15T06:54:00.279Z,15.65
2023-05-15T06:56:27.305Z,15.21
2023-05-15T06:58:54.514Z,15.74
2023-05-15T07:01:21.583Z,15.35
2023-05-15T07:03:48.628Z,15.81
2023-05-15T07:06:15.858Z,15.46
2023-05-15T07:08:43.062Z,15.86
2023-05-15T07:11:10.021Z,15.76
2023-05-15T07:13:36.971Z,15.92
2023-05-15T07:16:04.229Z,15.93
2023-05-15T07:18:31.270Z,15.84
2023-05-15T07:20:58.330Z,15.97
2023-05-15T07:23:25.359Z,16.14
2023-05-15T07:25:55.742Z,15.95
2023-05-15T07:28:23.025Z,15.91
2023-05-15T07:30:50.109Z,16.24
2023-05-15T07:33:17.086Z,16.34
2023-05-15T07:35:44.188Z,16.29
2023-05-15T07:38:12.054Z,16.46
2023-05-15T07:40:39.048Z,16.21
2023-05-15T07:43:06.057Z,16.56
2023-05-15T07:45:33.119Z,16.20
2023-05-15T07:48:13.071Z,16.60
2023-05-15T07:50:39.992Z,16.65
2023-05-15T07:53:06.971Z,16.67
2023-05-15T07:55:33.892Z,16.43
2023-05-15T07:58:00.856Z,16.71
2023-05-15T08:00:27.851Z,16.58
2023-05-15T08:02:54.982Z,16.55
2023-05-15T08:05:22.014Z,16.91
2023-05-15T08:07:49.040Z,16.81
2023-05-15T08:10:16.019Z,17.08
2023-05-15T08:12:46.692Z,17.17
2023-05-15T08:15:14.060Z,17.03
2023-05-15T08:17:41.631Z,17.23
2023-05-15T08:20:09.795Z,17.10
2023-05-15T08:22:36.900Z,17.44
2023-05-15T08:25:05.862Z,17.52
2023-05-15T08:27:33.151Z,17.67
2023-05-15T08:30:00.395Z,17.65
2023-05-15T08:32:27.892Z,17.82
2023-05-15T08:34:55.329Z,17.87
2023-05-15T08:37:22.431Z,17.76
2023-05-15T08:39:49.407Z,18.03
2023-05-15T08:42:25.351Z,18.16
2023-05-15T08:44:52.990Z,18.12
2023-05-15T08:47:20.880Z,18.25
2023-05-15T08:50:15.542Z,18.37
2023-05-15T08:52:44.389Z,18.38
2023-05-15T08:55:11.926Z,18.29
2023-05-15T08:57:39.308Z,18.54
2023-05-15T09:00:09.612Z,18.58
2023-05-15T09:02:37.700Z,18.62
2023-05-15T09:05:06.477Z,18.74
2023-05-15T09:07:34.158Z,18.67
2023-05-15T09:10:02.778Z,18.92
2023-05-15T09:12:33.840Z,19.04
2023-05-15T09:15:11.207Z,19.11
2023-05-15T09:17:39.742Z,19.12
2023-05-15T09:20:08.199Z,18.99
2023-05-15T09:22:36.661Z,18.94
2023-05-15T09:25:04.635Z,19.22
2023-05-15T09:27:42.978Z,19.59
2023-05-15T09:30:10.239Z,19.63
2023-05-15T09:32:38.807Z,19.66
2023-05-15T09:35:31.840Z,19.90
2023-05-15T09:38:00.588Z,19.84
2023-05-15T09:40:31.950Z,19.77
2023-05-15T09:42:59.566Z,20.15
2023-05-15T09:45:30.062Z,20.35
2023-05-15T09:48:00.360Z,20.30
2023-05-15T09:50:38.458Z,20.40
2023-05-15T09:53:06.355Z,20.53
2023-05-15T09:55:34.817Z,20.66
2023-05-15T09:58:16.500Z,21.05
2023-05-15T10:00:47.895Z,21.16
2023-05-15T10:03:20.150Z,21.15
2023-05-15T10:05:47.404Z,21.43
2023-05-15T10:08:15.994Z,21.44
2023-05-15T10:10:43.878Z,21.59
2023-05-15T10:13:11.560Z,21.66
2023-05-15T10:15:40.141Z,21.40
2023-05-15T10:18:08.736Z,21.70
2023-05-15T10:20:36.542Z,21.72
2023-05-15T10:23:06.717Z,21.53
2023-05-15T10:25:49.666Z,21.63
2023-05-15T10:28:19.014Z,21.53
2023-05-15T10:30:47.200Z,21.84
2023-05-15T10:33:15.634Z,21.43
2023-05-15T10:35:43.511Z,21.82
2023-05-15T10:38:11.793Z,21.97
2023-05-15T10:40:41.081Z,22.00
2023-05-15T10:43:11.683Z,22.02
2023-05-15T10:45:39.952Z,22.11
2023-05-15T10:48:08.576Z,21.97
2023-05-15T10:50:38.091Z,21.94
2023-05-15T10:53:05.519Z,22.07
2023-05-15T10:55:32.918Z,22.02
2023-05-15T10:58:00.028Z,22.16
2023-05-15T11:00:29.353Z,21.87
2023-05-15T11:02:57.338Z,22.21
2023-05-15T11:05:25.894Z,22.12
2023-05-15T11:08:21.685Z,22.17
2023-05-15T11:10:48.909Z,22.14
2023-05-15T11:13:15.907Z,21.88
2023-05-15T11:15:44.678Z,21.67
2023-05-15T11:18:12.361Z,21.84
2023-05-15T11:20:53.460Z,21.99
2023-05-15T11:23:25.729Z,22.09
2023-05-15T11:25:59.165Z,22.15
2023-05-15T11:28:30.002Z,21.99
2023-05-15T11:31:06.753Z,22.25
2023-05-15T11:33:33.978Z,22.37
2023-05-15T11:36:01.907Z,22.47
2023-05-15T11:38:28.838Z,22.44
2023-05-15T11:40:58.759Z,22.41
2023-05-15T11:43:27.822Z,22.28
2023-05-15T11:46:06.507Z,22.43
2023-05-15T11:48:40.335Z,22.50
2023-05-15T11:51:24.231Z,22.24
2023-05-15T11:53:52.915Z,22.32
2023-05-15T11:56:21.247Z,22.50
2023-05-15T11:58:52.964Z,22.12
2023-05-15T12:01:19.993Z,22.41
2023-05-15T12:03:49.431Z,21.89
2023-05-15T12:06:16.990Z,21.70
2023-05-15T12:08:45.209Z,22.20
2023-05-15T12:11:12.520Z,22.13
2023-05-15T12:13:39.542Z,22.06
2023-05-15T12:16:06.801Z,21.75
2023-05-15T12:18:34.426Z,21.78
2023-05-15T12:21:01.670Z,22.11
2023-05-15T12:23:28.886Z,22.19
2023-05-15T12:26:00.672Z,21.95
2023-05-15T12:28:29.062Z,22.30
2023-05-15T12:30:56.415Z,22.20
2023-05-15T12:33:24.300Z,21.97
2023-05-15T12:35:56.211Z,22.25
2023-05-15T12:38:25.128Z,22.27
2023-05-15T12:40:57.089Z,22.19
2023-05-15T12:43:25.836Z,22.07
2023-05-15T12:45:56.994Z,22.26
2023-05-15T12:48:29.773Z,21.99
2023-05-15T12:50:57.058Z,21.78
2023-05-15T12:53:24.197Z,22.02
2023-05-15T12:55:51.301Z,22.21
2023-05-15T12:58:19.323Z,21.85
2023-05-15T13:00:47.017Z,22.30
2023-05-15T13:03:14.635Z,22.28
2023-05-15T13:05:45.843Z,22.13
2023-05-15T13:08:17.755Z,22.18
2023-05-15T13:10:46.426Z,22.18
2023-05-15T13:13:14.082Z,21.99
2023-05-15T13:15:44.679Z,22.02
2023-05-15T13:18:18.126Z,21.96
2023-05-15T13:20:47.011Z,22.04
2023-05-15T13:23:19.012Z,21.79
2023-05-15T13:25:46.337Z,21.97
2023-05-15T13:28:14.346Z,21.57
2023-05-15T13:30:42.417Z,21.83
2023-05-15T13:33:10.911Z,21.93
2023-05-15T13:35:39.523Z,21.28
2023-05-15T13:38:08.689Z,21.65
2023-05-15T13:40:37.627Z,21.58
2023-05-15T13:43:07.076Z,21.84
2023-05-15T13:45:34.348Z,21.43
2023-05-15T13:48:01.757Z,21.02
2023-05-15T13:50:31.673Z,21.53
2023-05-15T13:52:58.794Z,21.11
2023-05-15T13:55:26.338Z,21.43
2023-05-15T13:57:53.452Z,21.00
2023-05-15T14:00:20.995Z,21.43
2023-05-15T14:02:48.243Z,21.49
2023-05-15T14:05:16.543Z,21.40
2023-05-15T14:07:43.750Z,21.26
2023-05-15T14:10:11.119Z,20.91
2023-05-15T14:12:38.899Z,20.77
2023-05-15T14:15:06.618Z,21.14
2023-05-15T14:17:33.789Z,21.08
2023-05-15T14:20:00.957Z,20.80
2023-05-15T14:22:28.024Z,21.05
2023-05-15T14:24:55.096Z,20.83
2023-05-15T14:27:22.317Z,21.08
2023-05-15T14:29:51.066Z,20.96
2023-05-15T14:32:18.101Z,20.98
2023-05-15T14:34:45.181Z,21.04
2023-05-15T14:37:12.173Z,20.80
2023-05-15T14:39:39.313Z,20.73
2023-05-15T14:42:07.173Z,20.91
2023-05-15T14:44:34.965Z,20.98
2023-05-15T14:47:08.530Z,20.96
2023-05-15T14:49:36.528Z,20.88
2023-05-15T14:52:08.062Z,20.65
2023-05-15T14:54:35.913Z,20.85
2023-05-15T14:57:06.292Z,20.74
2023-05-15T14:59:33.238Z,20.16
2023-05-15T15:02:00.321Z,20.74
2023-05-15T15:04:29.193Z,21.09
2023-05-15T15:06:57.226Z,21.09
2023-05-15T15:09:25.477Z,21.17
2023-05-15T15:11:53.287Z,21.24
2023-05-15T15:14:20.466Z,20.96
2023-05-15T15:16:47.582Z,20.99
2023-05-15T15:19:16.695Z,21.34
2023-05-15T15:21:45.215Z,21.38
2023-05-15T15:24:12.186Z,21.18
2023-05-15T15:26:40.027Z,21.41
2023-05-15T15:29:07.109Z,21.38
2023-05-15T15:31:34.163Z,21.33
2023-05-15T15:34:03.053Z,21.03
2023-05-15T15:36:32.362Z,21.34
2023-05-15T15:38:59.349Z,20.78
2023-05-15T15:41:26.350Z,21.40
2023-05-15T15:43:54.020Z,20.96
2023-05-15T15:46:21.148Z,21.36
2023-05-15T15:48:48.625Z,21.23
2023-05-15T15:51:16.418Z,21.28
2023-05-15T15:53:43.362Z,21.00
2023-05-15T15:56:10.465Z,21.21
2023-05-15T15:58:37.514Z,21.34
2023-05-15T16:01:04.704Z,20.97
2023-05-15T16:03:31.954Z,21.14
2023-05-15T16:06:00.358Z,21.14
2023-05-15T16:08:27.979Z,21.02
2023-05-15T16:10:55.316Z,21.10
2023-05-15T16:13:22.418Z,20.79
2023-05-15T16:15:49.391Z,20.35
2023-05-15T16:18:16.859Z,20.71
2023-05-15T16:20:43.968Z,20.78
2023-05-15T16:23:15.634Z,21.04
2023-05-15T16:25:44.754Z,20.49
2023-05-15T16:28:12.265Z,20.94
2023-05-15T16:30:48.720Z,20.51
2023-05-15T16:33:18.400Z,20.97
2023-05-15T16:35:46.225Z,20.91
2023-05-15T16:38:14.013Z,20.94
2023-05-15T16:40:41.557Z,20.64
2023-05-15T16:43:08.784Z,20.74
2023-05-15T16:45:35.947Z,20.35
2023-05-15T16:48:03.168Z,20.64
2023-05-15T16:50:32.493Z,20.59
2023-05-15T16:52:59.632Z,20.51
2023-05-15T16:55:26.930Z,20.21
2023-05-15T16:57:54.201Z,20.12
2023-05-15T17:00:21.575Z,19.38
2023-05-15T17:02:49.406Z,20.28
2023-05-15T17:05:16.819Z,19.88
2023-05-15T17:07:44.850Z,20.29
2023-05-15T17:10:12.844Z,20.21
2023-05-15T17:12:40.320Z,19.67
2023-05-15T17:15:08.220Z,19.70
2023-05-15T17:17:35.392Z,19.99
2023-05-15T17:20:04.022Z,19.96
2023-05-15T17:22:31.023Z,19.91
2023-05-15T17:24:58.073Z,20.00
2023-05-15T17:27:25.172Z,19.81
2023-05-15T17:29:52.576Z,19.63
2023-05-15T17:32:20.502Z,19.64
2023-05-15T17:34:48.017Z,19.58
2023-05-15T17:37:15.411Z,18.93
2023-05-15T17:39:42.955Z,18.84
2023-05-15T17:42:10.037Z,18.99
2023-05-15T17:44:37.163Z,19.25
2023-05-15T17:47:04.515Z,19.11
2023-05-15T17:49:31.520Z,18.75
2023-05-15T17:51:58.674Z,18.92
2023-05-15T17:54:25.743Z,18.75
2023-05-15T17:56:52.760Z,18.80
2023-05-15T17:59:19.776Z,18.64
2023-05-15T18:01:47.012Z,18.58
2023-05-15T18:04:14.161Z,18.46
2023-05-15T18:06:41.573Z,18.48
2023-05-15T18:09:08.858Z,18.37
2023-05-15T18:11:35.818Z,17.93
2023-05-15T18:14:02.914Z,18.32
2023-05-15T18:16:31.389Z,17.71
2023-05-15T18:18:59.085Z,18.25
2023-05-15T18:21:26.312Z,18.32
2023-05-15T18:23:53.314Z,18.21
2023-05-15T18:26:21.500Z,17.78
2023-05-15T18:28:49.482Z,18.14
2023-05-15T18:31:16.740Z,17.96
2023-05-15T18:33:45.222Z,18.12
2023-05-15T18:36:12.294Z,18.14
2023-05-15T18:38:39.453Z,17.75
2023-05-15T18:41:06.692Z,17.94
2023-05-15T18:43:33.853Z,16.74
2023-05-15T18:46:00.946Z,17.74
2023-05-15T18:48:27.969Z,17.27
2023-05-15T18:50:55.986Z,17.47
2023-05-15T18:53:23.094Z,17.51
2023-05-15T18:55:50.153Z,17.58
2023-05-15T18:58:17.282Z,17.42
2023-05-15T19:00:44.559Z,17.28
2023-05-15T19:03:11.818Z,17.82
2023-05-15T19:05:38.857Z,17.51
2023-05-15T19:08:07.088Z,17.75
2023-05-15T19:10:34.257Z,16.80
2023-05-15T19:13:01.507Z,17.62
2023-05-15T19:15:28.569Z,17.04
2023-05-15T19:17:55.890Z,17.58
2023-05-15T19:20:22.978Z,17.48
2023-05-15T19:22:50.049Z,17.55
2023-05-15T19:25:17.067Z,17.07
2023-05-15T19:27:44.148Z,17.48
2023-05-15T19:30:11.667Z,17.27
2023-05-15T19:32:39.439Z,17.49
2023-05-15T19:35:06.608Z,17.44
2023-05-15T19:37:33.638Z,16.97
2023-05-15T19:40:00.718Z,16.80
2023-05-15T19:42:28.226Z,17.25
2023-05-15T19:44:55.241Z,17.30
2023-05-15T19:47:22.299Z,17.14
2023-05-15T19:49:49.305Z,17.22
2023-05-15T19:52:16.870Z,17.23
2023-05-15T19:54:44.437Z,15.72
2023-05-15T19:57:11.408Z,17.26
2023-05-15T19:59:38.616Z,16.47
2023-05-15T20:02:09.280Z,17.19
2023-05-15T20:04:37.164Z,17.11
2023-05-15T20:07:04.557Z,17.12
2023-05-15T20:09:31.872Z,17.03
2023-05-15T20:11:59.243Z,16.69
2023-05-15T20:14:26.280Z,16.69
2023-05-15T20:16:53.268Z,17.18
2023-05-15T20:19:22.422Z,16.84
2023-05-15T20:21:50.082Z,17.06
2023-05-15T20:24:18.161Z,17.00
2023-05-15T20:26:45.775Z,15.72
2023-05-15T20:29:12.841Z,16.76
2023-05-15T20:31:40.671Z,16.75
2023-05-15T20:34:08.611Z,16.19
2023-05-15T20:36:39.064Z,16.91
2023-05-15T20:39:07.560Z,16.78
2023-05-15T20:41:35.125Z,16.79
2023-05-15T20:44:02.734Z,16.86
2023-05-15T20:46:30.728Z,16.87
2023-05-15T20:48:57.982Z,16.30
2023-05-15T20:51:25.288Z,16.60
2023-05-15T20:53:52.433Z,16.25
2023-05-15T20:56:19.544Z,16.78
2023-05-15T20:58:46.726Z,16.84
2023-05-15T21:01:14.233Z,16.65
2023-05-15T21:03:41.616Z,16.70
2023-05-15T21:06:09.244Z,16.03
2023-05-15T21:08:36.445Z,16.17
2023-05-15T21:11:03.445Z,16.82
2023-05-15T21:13:30.632Z,16.79
2023-05-15T21:15:57.813Z,16.39
2023-05-15T21:18:25.103Z,16.80
2023-05-15T21:20:53.087Z,16.88
2023-05-15T21:23:21.417Z,16.62
2023-05-15T21:25:48.650Z,16.34
2023-05-15T21:28:16.109Z,16.37
2023-05-15T21:30:43.204Z,16.67
2023-05-15T21:33:10.845Z,16.38
2023-05-15T21:35:38.354Z,16.54
2023-05-15T21:38:05.623Z,16.80
2023-05-15T21:40:32.775Z,16.48
2023-05-15T21:42:59.749Z,16.70
2023-05-15T21:45:26.940Z,15.97
2023-05-15T21:47:54.047Z,16.73
2023-05-15T21:50:21.099Z,16.54
2023-05-15T21:52:51.238Z,16.61
2023-05-15T21:55:19.180Z,16.51
2023-05-15T21:57:46.271Z,16.48
2023-05-15T22:00:14.207Z,16.45
2023-05-15T22:02:41.383Z,16.30
2023-05-15T22:05:09.136Z,15.99
2023-05-15T22:07:36.214Z,16.15
2023-05-15T22:10:03.493Z,16.53
2023-05-15T22:12:32.336Z,16.66
2023-05-15T22:14:59.985Z,16.45
2023-05-15T22:17:29.308Z,16.21
2023-05-15T22:20:07.057Z,16.47
2023-05-15T22:22:35.735Z,16.18
2023-05-15T22:25:03.097Z,16.50
2023-05-15T22:27:30.294Z,16.46
2023-05-15T22:29:57.394Z,16.47
2023-05-15T22:32:24.720Z,16.38
2023-05-15T22:34:52.016Z,16.15
2023-05-15T22:37:19.457Z,16.45
2023-05-15T22:39:46.512Z,16.11
2023-05-15T22:42:13.597Z,16.45
2023-05-15T22:44:40.644Z,16.38
2023-05-15T22:47:08.011Z,15.91
2023-05-15T22:49:35.357Z,15.65
2023-05-15T22:52:02.551Z,15.75
2023-05-15T22:54:29.684Z,16.28
2023-05-15T22:56:57.038Z,16.47
2023-05-15T22:59:24.261Z,15.92
2023-05-15T23:01:51.783Z,16.30
2023-05-15T23:04:19.111Z,16.18
2023-05-15T23:06:46.294Z,16.52
2023-05-15T23:09:13.362Z,16.34
2023-05-15T23:11:40.322Z,16.36
2023-05-15T23:14:08.490Z,16.55
2023-05-15T23:16:36.182Z,15.95
2023-05-15T23:19:03.279Z,16.25
2023-05-15T23:21:30.427Z,16.15
2023-05-15T23:23:57.342Z,15.93
2023-05-15T23:26:24.377Z,16.23
2023-05-15T23:28:51.537Z,16.06
2023-05-15T23:31:18.738Z,15.87
2023-05-15T23:33:45.910Z,15.67
2023-05-15T23:36:12.911Z,16.06
2023-05-15T23:38:40.122Z,16.12
2023-05-15T23:41:07.081Z,15.70
2023-05-15T23:43:34.167Z,16.24
2023-05-15T23:46:01.120Z,15.59
2023-05-15T23:48:28.238Z,15.94
2023-05-15T23:50:55.218Z,16.09
2023-05-15T23:53:22.268Z,16.03
2023-05-15T23:55:49.503Z,16.01
2023-05-15T23:58:16.831Z,16.01
